sensor_id;sensor_type;location;lat;lon;timestamp;P1;durP1;ratioP1;P2;durP2;ratioP2
11539;SDS011;5826;54.756;9.192;2022-10-22T00:01:49;5.00;;;4.60;;
11539;SDS011;5826;54.756;9.192;2022-10-22T00:04:14;4.63;;;4.22;;
11539;SDS011;5826;54.756;9.192;2022-10-22T00:06:40;4.53;;;4.13;;
11539;SDS011;5826;54.756;9.192;2022-10-22T00:09:08;5.07;;;4.68;;
11539;SDS011;5826;54.756;9.192;2022-10-22T00:11:35;5.07;;;4.55;;
11539;SDS011;5826;54.756;9.192;2022-10-22T00:14:00;5.30;;;4.80;;
11539;SDS011;5826;54.756;9.192;2022-10-22T00:16:26;4.82;;;4.43;;
11539;SDS011;5826;54.756;9.192;2022-10-22T00:18:51;5.47;;;4.97;;
11539;SDS011;5826;54.756;9.192;2022-10-22T00:21:17;4.88;;;4.47;;
11539;SDS011;5826;54.756;9.192;2022-10-22T00:23:43;3.92;;;3.63;;
11539;SDS011;5826;54.756;9.192;2022-10-22T00:26:09;4.88;;;4.47;;
11539;SDS011;5826;54.756;9.192;2022-10-22T00:28:35;5.05;;;4.35;;
11539;SDS011;5826;54.756;9.192;2022-10-22T00:31:01;4.75;;;4.35;;
11539;SDS011;5826;54.756;9.192;2022-10-22T00:33:26;4.57;;;4.18;;
11539;SDS011;5826;54.756;9.192;2022-10-22T00:35:53;5.00;;;4.60;;
11539;SDS011;5826;54.756;9.192;2022-10-22T00:38:19;4.82;;;4.40;;
11539;SDS011;5826;54.756;9.192;2022-10-22T00:40:45;5.32;;;4.82;;
11539;SDS011;5826;54.756;9.192;2022-10-22T00:43:11;5.43;;;4.30;;
11539;SDS011;5826;54.756;9.192;2022-10-22T00:45:39;5.05;;;4.55;;
11539;SDS011;5826;54.756;9.192;2022-10-22T00:50:39;4.75;;;4.25;;
11539;SDS011;5826;54.756;9.192;2022-10-22T00:53:13;4.65;;;4.25;;
11539;SDS011;5826;54.756;9.192;2022-10-22T00:55:40;4.25;;;3.95;;
11539;SDS011;5826;54.756;9.192;2022-10-22T00:58:08;7.10;;;6.35;;
11539;SDS011;5826;54.756;9.192;2022-10-22T01:00:34;5.70;;;5.10;;
11539;SDS011;5826;54.756;9.192;2022-10-22T01:03:00;5.45;;;4.80;;
11539;SDS011;5826;54.756;9.192;2022-10-22T01:05:29;5.85;;;5.28;;
11539;SDS011;5826;54.756;9.192;2022-10-22T01:07:57;5.88;;;4.82;;
11539;SDS011;5826;54.756;9.192;2022-10-22T01:10:25;5.50;;;5.00;;
11539;SDS011;5826;54.756;9.192;2022-10-22T01:13:01;5.30;;;4.78;;
11539;SDS011;5826;54.756;9.192;2022-10-22T01:32:10;5.47;;;4.63;;
11539;SDS011;5826;54.756;9.192;2022-10-22T01:34:40;5.38;;;4.88;;
11539;SDS011;5826;54.756;9.192;2022-10-22T01:37:09;5.88;;;4.88;;
11539;SDS011;5826;54.756;9.192;2022-10-22T01:39:38;5.00;;;4.60;;
11539;SDS011;5826;54.756;9.192;2022-10-22T01:42:06;4.90;;;4.35;;
11539;SDS011;5826;54.756;9.192;2022-10-22T01:44:32;6.78;;;5.90;;
11539;SDS011;5826;54.756;9.192;2022-10-22T01:47:14;5.88;;;5.28;;
11539;SDS011;5826;54.756;9.192;2022-10-22T01:52:51;5.43;;;4.93;;
11539;SDS011;5826;54.756;9.192;2022-10-22T02:01:08;5.57;;;5.07;;
11539;SDS011;5826;54.756;9.192;2022-10-22T02:03:55;6.10;;;4.82;;
11539;SDS011;5826;54.756;9.192;2022-10-22T02:06:27;5.30;;;4.80;;
11539;SDS011;5826;54.756;9.192;2022-10-22T02:08:56;4.60;;;4.20;;
11539;SDS011;5826;54.756;9.192;2022-10-22T02:11:24;5.05;;;4.55;;
11539;SDS011;5826;54.756;9.192;2022-10-22T02:13:51;4.93;;;4.43;;
11539;SDS011;5826;54.756;9.192;2022-10-22T02:16:22;5.07;;;4.57;;
11539;SDS011;5826;54.756;9.192;2022-10-22T02:18:53;5.53;;;4.90;;
11539;SDS011;5826;54.756;9.192;2022-10-22T02:21:21;4.63;;;4.13;;
11539;SDS011;5826;54.756;9.192;2022-10-22T02:23:46;4.88;;;4.30;;
11539;SDS011;5826;54.756;9.192;2022-10-22T02:26:31;5.60;;;5.03;;
11539;SDS011;5826;54.756;9.192;2022-10-22T02:29:13;6.47;;;5.53;;
11539;SDS011;5826;54.756;9.192;2022-10-22T02:31:44;6.20;;;5.13;;
11539;SDS011;5826;54.756;9.192;2022-10-22T02:34:13;8.52;;;7.10;;
11539;SDS011;5826;54.756;9.192;2022-10-22T02:36:44;9.05;;;8.15;;
11539;SDS011;5826;54.756;9.192;2022-10-22T02:39:11;9.77;;;7.95;;
11539;SDS011;5826;54.756;9.192;2022-10-22T02:41:38;9.88;;;8.50;;
11539;SDS011;5826;54.756;9.192;2022-10-22T02:44:06;9.23;;;7.22;;
11539;SDS011;5826;54.756;9.192;2022-10-22T02:46:34;7.53;;;6.45;;
11539;SDS011;5826;54.756;9.192;2022-10-22T02:49:00;9.73;;;7.10;;
11539;SDS011;5826;54.756;9.192;2022-10-22T02:51:25;14.93;;;11.50;;
11539;SDS011;5826;54.756;9.192;2022-10-22T02:53:51;16.20;;;12.32;;
11539;SDS011;5826;54.756;9.192;2022-10-22T02:56:16;16.52;;;12.75;;
11539;SDS011;5826;54.756;9.192;2022-10-22T02:58:42;24.67;;;18.77;;
11539;SDS011;5826;54.756;9.192;2022-10-22T03:01:07;18.15;;;14.82;;
11539;SDS011;5826;54.756;9.192;2022-10-22T03:03:33;13.30;;;11.55;;
11539;SDS011;5826;54.756;9.192;2022-10-22T03:05:58;18.73;;;15.38;;
11539;SDS011;5826;54.756;9.192;2022-10-22T03:08:24;15.93;;;12.48;;
11539;SDS011;5826;54.756;9.192;2022-10-22T03:10:49;13.82;;;11.52;;
11539;SDS011;5826;54.756;9.192;2022-10-22T03:13:15;14.93;;;11.90;;
11539;SDS011;5826;54.756;9.192;2022-10-22T03:15:40;14.68;;;12.43;;
11539;SDS011;5826;54.756;9.192;2022-10-22T03:18:06;11.25;;;9.10;;
11539;SDS011;5826;54.756;9.192;2022-10-22T03:20:31;10.48;;;8.95;;
11539;SDS011;5826;54.756;9.192;2022-10-22T03:22:57;13.68;;;11.02;;
11539;SDS011;5826;54.756;9.192;2022-10-22T03:25:23;15.10;;;11.52;;
11539;SDS011;5826;54.756;9.192;2022-10-22T03:27:50;13.27;;;9.80;;
11539;SDS011;5826;54.756;9.192;2022-10-22T03:30:17;12.02;;;9.10;;
11539;SDS011;5826;54.756;9.192;2022-10-22T03:32:43;9.65;;;7.97;;
11539;SDS011;5826;54.756;9.192;2022-10-22T03:35:08;11.13;;;8.57;;
11539;SDS011;5826;54.756;9.192;2022-10-22T03:37:34;9.77;;;7.85;;
11539;SDS011;5826;54.756;9.192;2022-10-22T03:40:00;11.88;;;10.07;;
11539;SDS011;5826;54.756;9.192;2022-10-22T03:42:28;11.98;;;9.85;;
11539;SDS011;5826;54.756;9.192;2022-10-22T03:44:53;9.05;;;8.07;;
11539;SDS011;5826;54.756;9.192;2022-10-22T03:47:19;9.73;;;8.73;;
11539;SDS011;5826;54.756;9.192;2022-10-22T03:49:48;8.80;;;7.90;;
11539;SDS011;5826;54.756;9.192;2022-10-22T03:52:14;10.70;;;9.25;;
11539;SDS011;5826;54.756;9.192;2022-10-22T03:54:39;10.82;;;9.57;;
11539;SDS011;5826;54.756;9.192;2022-10-22T03:57:06;9.98;;;8.40;;
11539;SDS011;5826;54.756;9.192;2022-10-22T03:59:39;9.45;;;8.45;;
11539;SDS011;5826;54.756;9.192;2022-10-22T04:02:09;8.80;;;7.90;;
11539;SDS011;5826;54.756;9.192;2022-10-22T04:04:36;8.48;;;7.57;;
11539;SDS011;5826;54.756;9.192;2022-10-22T04:07:02;10.13;;;9.02;;
11539;SDS011;5826;54.756;9.192;2022-10-22T04:09:31;22.60;;;11.35;;
11539;SDS011;5826;54.756;9.192;2022-10-22T04:11:58;11.23;;;10.13;;
11539;SDS011;5826;54.756;9.192;2022-10-22T04:14:24;11.57;;;10.38;;
11539;SDS011;5826;54.756;9.192;2022-10-22T04:16:49;10.20;;;9.20;;
11539;SDS011;5826;54.756;9.192;2022-10-22T04:19:15;7.90;;;7.10;;
11539;SDS011;5826;54.756;9.192;2022-10-22T04:21:40;10.98;;;9.88;;
11539;SDS011;5826;54.756;9.192;2022-10-22T04:24:06;9.77;;;8.77;;
11539;SDS011;5826;54.756;9.192;2022-10-22T04:26:32;17.27;;;11.07;;
11539;SDS011;5826;54.756;9.192;2022-10-22T04:28:57;12.57;;;10.68;;
11539;SDS011;5826;54.756;9.192;2022-10-22T04:31:23;10.18;;;9.13;;
11539;SDS011;5826;54.756;9.192;2022-10-22T04:33:53;10.13;;;9.07;;
11539;SDS011;5826;54.756;9.192;2022-10-22T04:36:19;10.43;;;9.32;;
11539;SDS011;5826;54.756;9.192;2022-10-22T04:38:45;9.10;;;8.20;;
11539;SDS011;5826;54.756;9.192;2022-10-22T04:41:13;10.80;;;9.40;;
11539;SDS011;5826;54.756;9.192;2022-10-22T04:43:40;9.55;;;8.55;;
11539;SDS011;5826;54.756;9.192;2022-10-22T04:46:07;8.65;;;7.80;;
11539;SDS011;5826;54.756;9.192;2022-10-22T04:48:33;7.45;;;6.75;;
11539;SDS011;5826;54.756;9.192;2022-10-22T04:51:00;6.57;;;5.97;;
11539;SDS011;5826;54.756;9.192;2022-10-22T04:53:26;7.85;;;7.05;;
11539;SDS011;5826;54.756;9.192;2022-10-22T04:55:52;6.65;;;5.95;;
11539;SDS011;5826;54.756;9.192;2022-10-22T04:58:17;6.05;;;5.50;;
11539;SDS011;5826;54.756;9.192;2022-10-22T05:00:43;6.90;;;6.20;;
11539;SDS011;5826;54.756;9.192;2022-10-22T05:03:08;6.80;;;6.03;;
11539;SDS011;5826;54.756;9.192;2022-10-22T05:05:34;6.85;;;6.15;;
11539;SDS011;5826;54.756;9.192;2022-10-22T05:07:59;6.85;;;6.15;;
11539;SDS011;5826;54.756;9.192;2022-10-22T05:10:25;6.40;;;5.80;;
11539;SDS011;5826;54.756;9.192;2022-10-22T05:12:50;6.38;;;5.78;;
11539;SDS011;5826;54.756;9.192;2022-10-22T05:15:16;6.90;;;6.20;;
11539;SDS011;5826;54.756;9.192;2022-10-22T05:17:41;6.45;;;5.85;;
11539;SDS011;5826;54.756;9.192;2022-10-22T05:20:07;5.47;;;4.97;;
11539;SDS011;5826;54.756;9.192;2022-10-22T05:22:33;7.18;;;6.47;;
11539;SDS011;5826;54.756;9.192;2022-10-22T05:24:59;7.05;;;6.35;;
11539;SDS011;5826;54.756;9.192;2022-10-22T05:27:25;6.15;;;5.53;;
11539;SDS011;5826;54.756;9.192;2022-10-22T05:29:50;6.97;;;5.80;;
11539;SDS011;5826;54.756;9.192;2022-10-22T05:32:16;6.40;;;5.75;;
11539;SDS011;5826;54.756;9.192;2022-10-22T05:34:42;6.45;;;5.82;;
11539;SDS011;5826;54.756;9.192;2022-10-22T05:37:07;6.55;;;5.95;;
11539;SDS011;5826;54.756;9.192;2022-10-22T05:39:33;6.75;;;6.05;;
11539;SDS011;5826;54.756;9.192;2022-10-22T05:42:00;8.73;;;6.72;;
11539;SDS011;5826;54.756;9.192;2022-10-22T05:44:27;6.28;;;5.68;;
11539;SDS011;5826;54.756;9.192;2022-10-22T05:46:52;7.18;;;6.47;;
11539;SDS011;5826;54.756;9.192;2022-10-22T05:49:18;7.07;;;6.38;;
11539;SDS011;5826;54.756;9.192;2022-10-22T05:51:43;9.30;;;8.07;;
11539;SDS011;5826;54.756;9.192;2022-10-22T05:54:16;15.93;;;11.85;;
11539;SDS011;5826;54.756;9.192;2022-10-22T05:56:43;9.23;;;8.32;;
11539;SDS011;5826;54.756;9.192;2022-10-22T05:59:09;8.85;;;7.95;;
11539;SDS011;5826;54.756;9.192;2022-10-22T06:01:35;8.88;;;7.97;;
11539;SDS011;5826;54.756;9.192;2022-10-22T06:04:01;7.75;;;6.95;;
11539;SDS011;5826;54.756;9.192;2022-10-22T06:06:39;8.85;;;7.68;;
11539;SDS011;5826;54.756;9.192;2022-10-22T06:11:48;7.30;;;6.57;;
11539;SDS011;5826;54.756;9.192;2022-10-22T06:14:15;6.97;;;6.25;;
11539;SDS011;5826;54.756;9.192;2022-10-22T06:16:41;9.45;;;7.97;;
11539;SDS011;5826;54.756;9.192;2022-10-22T06:19:08;7.57;;;6.85;;
11539;SDS011;5826;54.756;9.192;2022-10-22T06:21:36;27.88;;;15.57;;
11539;SDS011;5826;54.756;9.192;2022-10-22T06:24:02;12.70;;;10.65;;
11539;SDS011;5826;54.756;9.192;2022-10-22T06:26:28;10.82;;;8.95;;
11539;SDS011;5826;54.756;9.192;2022-10-22T06:28:54;11.80;;;10.27;;
11539;SDS011;5826;54.756;9.192;2022-10-22T06:31:20;11.88;;;9.93;;
11539;SDS011;5826;54.756;9.192;2022-10-22T06:33:46;16.60;;;13.02;;
11539;SDS011;5826;54.756;9.192;2022-10-22T06:36:13;28.25;;;15.98;;
11539;SDS011;5826;54.756;9.192;2022-10-22T06:38:40;26.08;;;16.33;;
11539;SDS011;5826;54.756;9.192;2022-10-22T06:41:07;17.67;;;14.52;;
11539;SDS011;5826;54.756;9.192;2022-10-22T06:43:35;51.00;;;20.38;;
11539;SDS011;5826;54.756;9.192;2022-10-22T06:46:01;44.53;;;19.60;;
11539;SDS011;5826;54.756;9.192;2022-10-22T06:48:29;30.80;;;17.33;;
11539;SDS011;5826;54.756;9.192;2022-10-22T06:50:55;14.35;;;12.85;;
11539;SDS011;5826;54.756;9.192;2022-10-22T06:53:24;11.82;;;10.38;;
11539;SDS011;5826;54.756;9.192;2022-10-22T06:55:50;10.48;;;9.45;;
11539;SDS011;5826;54.756;9.192;2022-10-22T06:58:15;9.20;;;8.30;;
11539;SDS011;5826;54.756;9.192;2022-10-22T07:00:41;8.60;;;7.80;;
11539;SDS011;5826;54.756;9.192;2022-10-22T07:03:07;8.13;;;7.32;;
11539;SDS011;5826;54.756;9.192;2022-10-22T07:05:35;8.48;;;7.20;;
11539;SDS011;5826;54.756;9.192;2022-10-22T07:08:01;8.15;;;6.85;;
11539;SDS011;5826;54.756;9.192;2022-10-22T07:10:26;7.93;;;7.13;;
11539;SDS011;5826;54.756;9.192;2022-10-22T07:12:52;10.50;;;8.88;;
11539;SDS011;5826;54.756;9.192;2022-10-22T07:15:17;10.18;;;8.93;;
11539;SDS011;5826;54.756;9.192;2022-10-22T07:17:43;10.25;;;9.20;;
11539;SDS011;5826;54.756;9.192;2022-10-22T07:20:09;12.43;;;10.98;;
11539;SDS011;5826;54.756;9.192;2022-10-22T07:22:36;12.30;;;11.00;;
11539;SDS011;5826;54.756;9.192;2022-10-22T07:25:02;17.50;;;12.93;;
11539;SDS011;5826;54.756;9.192;2022-10-22T07:27:27;12.82;;;11.52;;
11539;SDS011;5826;54.756;9.192;2022-10-22T07:29:53;17.75;;;13.10;;
11539;SDS011;5826;54.756;9.192;2022-10-22T07:32:19;42.22;;;18.40;;
11539;SDS011;5826;54.756;9.192;2022-10-22T07:34:44;12.57;;;11.10;;
11539;SDS011;5826;54.756;9.192;2022-10-22T07:37:10;10.65;;;9.55;;
11539;SDS011;5826;54.756;9.192;2022-10-22T07:39:35;8.60;;;7.75;;
11539;SDS011;5826;54.756;9.192;2022-10-22T07:42:01;9.63;;;8.70;;
11539;SDS011;5826;54.756;9.192;2022-10-22T07:44:27;8.00;;;7.20;;
11539;SDS011;5826;54.756;9.192;2022-10-22T07:46:52;11.30;;;9.82;;
11539;SDS011;5826;54.756;9.192;2022-10-22T07:49:17;11.63;;;9.65;;
11539;SDS011;5826;54.756;9.192;2022-10-22T07:51:43;10.50;;;9.35;;
11539;SDS011;5826;54.756;9.192;2022-10-22T07:54:09;9.23;;;8.32;;
11539;SDS011;5826;54.756;9.192;2022-10-22T07:56:34;8.23;;;7.43;;
11539;SDS011;5826;54.756;9.192;2022-10-22T07:58:59;8.15;;;7.28;;
11539;SDS011;5826;54.756;9.192;2022-10-22T08:01:25;8.75;;;7.13;;
11539;SDS011;5826;54.756;9.192;2022-10-22T08:03:51;6.65;;;6.05;;
11539;SDS011;5826;54.756;9.192;2022-10-22T08:06:16;8.15;;;7.30;;
11539;SDS011;5826;54.756;9.192;2022-10-22T08:08:42;7.60;;;6.68;;
11539;SDS011;5826;54.756;9.192;2022-10-22T08:11:09;8.32;;;7.30;;
11539;SDS011;5826;54.756;9.192;2022-10-22T08:13:35;7.30;;;6.57;;
11539;SDS011;5826;54.756;9.192;2022-10-22T08:16:00;7.63;;;6.82;;
11539;SDS011;5826;54.756;9.192;2022-10-22T08:18:26;7.35;;;6.35;;
11539;SDS011;5826;54.756;9.192;2022-10-22T08:20:52;7.20;;;6.50;;
11539;SDS011;5826;54.756;9.192;2022-10-22T08:23:18;6.78;;;6.07;;
11539;SDS011;5826;54.756;9.192;2022-10-22T08:25:43;6.93;;;6.28;;
11539;SDS011;5826;54.756;9.192;2022-10-22T08:28:09;6.22;;;5.63;;
11539;SDS011;5826;54.756;9.192;2022-10-22T08:30:35;6.05;;;5.45;;
11539;SDS011;5826;54.756;9.192;2022-10-22T08:33:02;6.60;;;5.95;;
11539;SDS011;5826;54.756;9.192;2022-10-22T08:35:28;6.60;;;6.00;;
11539;SDS011;5826;54.756;9.192;2022-10-22T08:37:54;10.13;;;9.07;;
11539;SDS011;5826;54.756;9.192;2022-10-22T08:40:23;13.88;;;11.48;;
11539;SDS011;5826;54.756;9.192;2022-10-22T08:43:00;9.55;;;8.52;;
11539;SDS011;5826;54.756;9.192;2022-10-22T08:45:40;14.85;;;11.77;;
11539;SDS011;5826;54.756;9.192;2022-10-22T08:51:00;12.32;;;10.40;;
11539;SDS011;5826;54.756;9.192;2022-10-22T08:53:44;9.48;;;8.18;;
11539;SDS011;5826;54.756;9.192;2022-10-22T08:56:40;9.65;;;8.30;;
11539;SDS011;5826;54.756;9.192;2022-10-22T08:59:19;19.15;;;15.70;;
11539;SDS011;5826;54.756;9.192;2022-10-22T09:01:50;16.70;;;14.38;;
11539;SDS011;5826;54.756;9.192;2022-10-22T09:04:23;20.63;;;17.15;;
11539;SDS011;5826;54.756;9.192;2022-10-22T09:06:58;17.08;;;13.73;;
11539;SDS011;5826;54.756;9.192;2022-10-22T09:09:31;16.95;;;14.70;;
11539;SDS011;5826;54.756;9.192;2022-10-22T09:12:02;11.65;;;10.45;;
11539;SDS011;5826;54.756;9.192;2022-10-22T09:14:29;19.40;;;14.10;;
11539;SDS011;5826;54.756;9.192;2022-10-22T09:25:33;15.93;;;13.57;;
11539;SDS011;5826;54.756;9.192;2022-10-22T09:28:00;20.02;;;17.08;;
11539;SDS011;5826;54.756;9.192;2022-10-22T09:30:31;12.13;;;10.52;;
11539;SDS011;5826;54.756;9.192;2022-10-22T09:33:01;11.15;;;8.88;;
11539;SDS011;5826;54.756;9.192;2022-10-22T09:35:43;17.73;;;15.60;;
11539;SDS011;5826;54.756;9.192;2022-10-22T09:38:12;14.27;;;12.27;;
11539;SDS011;5826;54.756;9.192;2022-10-22T09:40:47;10.43;;;9.32;;
11539;SDS011;5826;54.756;9.192;2022-10-22T09:43:14;12.57;;;10.80;;
11539;SDS011;5826;54.756;9.192;2022-10-22T09:45:41;16.20;;;13.52;;
11539;SDS011;5826;54.756;9.192;2022-10-22T09:48:11;15.55;;;12.68;;
11539;SDS011;5826;54.756;9.192;2022-10-22T09:53:36;9.73;;;8.73;;
11539;SDS011;5826;54.756;9.192;2022-10-22T09:56:06;10.60;;;9.50;;
11539;SDS011;5826;54.756;9.192;2022-10-22T09:58:49;10.82;;;9.27;;
11539;SDS011;5826;54.756;9.192;2022-10-22T10:01:17;11.98;;;9.45;;
11539;SDS011;5826;54.756;9.192;2022-10-22T10:03:49;9.05;;;8.15;;
11539;SDS011;5826;54.756;9.192;2022-10-22T10:06:19;16.45;;;13.00;;
11539;SDS011;5826;54.756;9.192;2022-10-22T10:08:47;9.48;;;7.93;;
11539;SDS011;5826;54.756;9.192;2022-10-22T10:14:04;9.57;;;7.68;;
11539;SDS011;5826;54.756;9.192;2022-10-22T10:16:42;9.25;;;8.20;;
11539;SDS011;5826;54.756;9.192;2022-10-22T10:22:43;8.90;;;7.60;;
11539;SDS011;5826;54.756;9.192;2022-10-22T10:28:05;6.40;;;5.80;;
11539;SDS011;5826;54.756;9.192;2022-10-22T10:36:13;6.28;;;5.68;;
11539;SDS011;5826;54.756;9.192;2022-10-22T10:39:10;6.43;;;5.32;;
11539;SDS011;5826;54.756;9.192;2022-10-22T10:44:26;8.98;;;7.45;;
11539;SDS011;5826;54.756;9.192;2022-10-22T10:47:27;8.60;;;7.28;;
11539;SDS011;5826;54.756;9.192;2022-10-22T10:50:26;11.55;;;10.32;;
11539;SDS011;5826;54.756;9.192;2022-10-22T10:53:16;7.90;;;7.03;;
11539;SDS011;5826;54.756;9.192;2022-10-22T10:58:55;6.78;;;5.68;;
11539;SDS011;5826;54.756;9.192;2022-10-22T11:01:49;6.60;;;6.00;;
11539;SDS011;5826;54.756;9.192;2022-10-22T11:07:16;7.32;;;6.57;;
11539;SDS011;5826;54.756;9.192;2022-10-22T11:09:56;7.78;;;6.47;;
11539;SDS011;5826;54.756;9.192;2022-10-22T11:12:29;6.20;;;5.60;;
11539;SDS011;5826;54.756;9.192;2022-10-22T11:17:39;7.00;;;6.13;;
11539;SDS011;5826;54.756;9.192;2022-10-22T11:20:14;6.65;;;5.93;;
11539;SDS011;5826;54.756;9.192;2022-10-22T11:22:45;6.60;;;5.53;;
11539;SDS011;5826;54.756;9.192;2022-10-22T11:25:37;10.10;;;8.95;;
11539;SDS011;5826;54.756;9.192;2022-10-22T11:28:10;8.10;;;6.15;;
11539;SDS011;5826;54.756;9.192;2022-10-22T11:30:37;14.20;;;9.43;;
11539;SDS011;5826;54.756;9.192;2022-10-22T11:33:08;7.07;;;5.32;;
11539;SDS011;5826;54.756;9.192;2022-10-22T11:35:37;6.43;;;5.75;;
11539;SDS011;5826;54.756;9.192;2022-10-22T11:38:09;8.90;;;6.15;;
11539;SDS011;5826;54.756;9.192;2022-10-22T11:40:43;10.77;;;8.02;;
11539;SDS011;5826;54.756;9.192;2022-10-22T11:43:31;8.23;;;6.18;;
11539;SDS011;5826;54.756;9.192;2022-10-22T11:46:01;11.73;;;6.35;;
11539;SDS011;5826;54.756;9.192;2022-10-22T11:48:59;8.52;;;6.50;;
11539;SDS011;5826;54.756;9.192;2022-10-22T11:51:38;8.57;;;5.60;;
11539;SDS011;5826;54.756;9.192;2022-10-22T11:57:11;7.63;;;5.82;;
11539;SDS011;5826;54.756;9.192;2022-10-22T12:02:30;6.22;;;4.18;;
11539;SDS011;5826;54.756;9.192;2022-10-22T12:10:17;7.78;;;5.40;;
11539;SDS011;5826;54.756;9.192;2022-10-22T12:12:44;6.88;;;5.05;;
11539;SDS011;5826;54.756;9.192;2022-10-22T12:15:23;5.68;;;3.90;;
11539;SDS011;5826;54.756;9.192;2022-10-22T12:17:55;9.52;;;4.90;;
11539;SDS011;5826;54.756;9.192;2022-10-22T12:20:23;6.43;;;4.00;;
11539;SDS011;5826;54.756;9.192;2022-10-22T12:22:50;7.57;;;4.53;;
11539;SDS011;5826;54.756;9.192;2022-10-22T12:25:24;8.20;;;4.53;;
11539;SDS011;5826;54.756;9.192;2022-10-22T12:27:55;7.03;;;3.80;;
11539;SDS011;5826;54.756;9.192;2022-10-22T12:30:33;7.63;;;5.20;;
11539;SDS011;5826;54.756;9.192;2022-10-22T12:33:00;5.22;;;3.55;;
11539;SDS011;5826;54.756;9.192;2022-10-22T12:35:31;4.95;;;3.58;;
11539;SDS011;5826;54.756;9.192;2022-10-22T12:38:10;6.70;;;4.80;;
11539;SDS011;5826;54.756;9.192;2022-10-22T12:40:41;8.40;;;4.82;;
11539;SDS011;5826;54.756;9.192;2022-10-22T12:43:12;5.13;;;3.53;;
11539;SDS011;5826;54.756;9.192;2022-10-22T12:45:39;7.70;;;4.72;;
11539;SDS011;5826;54.756;9.192;2022-10-22T12:48:13;6.10;;;4.20;;
11539;SDS011;5826;54.756;9.192;2022-10-22T12:50:48;8.52;;;5.68;;
11539;SDS011;5826;54.756;9.192;2022-10-22T12:53:23;7.90;;;3.78;;
11539;SDS011;5826;54.756;9.192;2022-10-22T12:56:09;5.53;;;4.28;;
11539;SDS011;5826;54.756;9.192;2022-10-22T12:58:42;8.63;;;5.05;;
11539;SDS011;5826;54.756;9.192;2022-10-22T13:01:13;5.75;;;4.15;;
11539;SDS011;5826;54.756;9.192;2022-10-22T13:03:42;6.43;;;4.15;;
11539;SDS011;5826;54.756;9.192;2022-10-22T13:06:28;7.88;;;5.03;;
11539;SDS011;5826;54.756;9.192;2022-10-22T13:11:38;5.82;;;4.05;;
11539;SDS011;5826;54.756;9.192;2022-10-22T13:14:27;11.65;;;5.65;;
11539;SDS011;5826;54.756;9.192;2022-10-22T13:27:42;6.90;;;5.10;;
11539;SDS011;5826;54.756;9.192;2022-10-22T13:30:09;6.68;;;;;
11539;SDS011;5826;54.756;9.192;2022-10-22T13:32:49;9.70;;;6.30;;
11539;SDS011;5826;54.756;9.192;2022-10-22T13:35:24;10.10;;;5.50;;
11539;SDS011;5826;54.756;9.192;2022-10-22T13:37:56;6.72;;;4.97;;
11539;SDS011;5826;54.756;9.192;2022-10-22T13:40:22;10.80;;;7.13;;
11539;SDS011;5826;54.756;9.192;2022-10-22T13:42:47;9.10;;;6.38;;
11539;SDS011;5826;54.756;9.192;2022-10-22T13:45:13;15.15;;;7.75;;
11539;SDS011;5826;54.756;9.192;2022-10-22T13:47:39;9.70;;;6.72;;
11539;SDS011;5826;54.756;9.192;2022-10-22T13:50:10;9.52;;;5.70;;
11539;SDS011;5826;54.756;9.192;2022-10-22T13:52:42;7.93;;;5.45;;
11539;SDS011;5826;54.756;9.192;2022-10-22T13:55:18;8.15;;;5.78;;
11539;SDS011;5826;54.756;9.192;2022-10-22T13:57:52;11.95;;;6.72;;
11539;SDS011;5826;54.756;9.192;2022-10-22T14:00:25;7.97;;;4.80;;
11539;SDS011;5826;54.756;9.192;2022-10-22T14:02:51;5.38;;;4.35;;
11539;SDS011;5826;54.756;9.192;2022-10-22T14:05:19;8.68;;;4.55;;
11539;SDS011;5826;54.756;9.192;2022-10-22T14:07:45;9.60;;;6.82;;
11539;SDS011;5826;54.756;9.192;2022-10-22T14:12:41;10.13;;;6.45;;
11539;SDS011;5826;54.756;9.192;2022-10-22T14:15:08;7.00;;;5.35;;
11539;SDS011;5826;54.756;9.192;2022-10-22T14:17:35;9.52;;;5.45;;
11539;SDS011;5826;54.756;9.192;2022-10-22T14:20:02;10.48;;;6.57;;
11539;SDS011;5826;54.756;9.192;2022-10-22T14:22:27;12.45;;;6.70;;
11539;SDS011;5826;54.756;9.192;2022-10-22T14:24:54;11.05;;;6.80;;
11539;SDS011;5826;54.756;9.192;2022-10-22T14:27:20;8.23;;;4.95;;
11539;SDS011;5826;54.756;9.192;2022-10-22T14:29:45;8.07;;;4.60;;
11539;SDS011;5826;54.756;9.192;2022-10-22T14:32:12;7.68;;;5.90;;
11539;SDS011;5826;54.756;9.192;2022-10-22T14:34:38;10.80;;;7.15;;
11539;SDS011;5826;54.756;9.192;2022-10-22T14:37:04;8.60;;;6.07;;
11539;SDS011;5826;54.756;9.192;2022-10-22T14:39:37;11.52;;;6.40;;
11539;SDS011;5826;54.756;9.192;2022-10-22T14:42:03;9.98;;;6.63;;
11539;SDS011;5826;54.756;9.192;2022-10-22T14:44:29;7.40;;;5.80;;
11539;SDS011;5826;54.756;9.192;2022-10-22T14:46:54;8.98;;;5.60;;
11539;SDS011;5826;54.756;9.192;2022-10-22T14:49:20;12.18;;;6.40;;
11539;SDS011;5826;54.756;9.192;2022-10-22T14:51:45;6.88;;;5.78;;
11539;SDS011;5826;54.756;9.192;2022-10-22T14:54:11;13.85;;;8.38;;
11539;SDS011;5826;54.756;9.192;2022-10-22T14:56:37;13.88;;;8.18;;
11539;SDS011;5826;54.756;9.192;2022-10-22T14:59:02;6.68;;;5.10;;
11539;SDS011;5826;54.756;9.192;2022-10-22T15:01:28;7.50;;;5.10;;
11539;SDS011;5826;54.756;9.192;2022-10-22T15:03:53;6.45;;;4.35;;
11539;SDS011;5826;54.756;9.192;2022-10-22T15:06:19;9.77;;;6.35;;
11539;SDS011;5826;54.756;9.192;2022-10-22T15:08:44;7.90;;;5.25;;
11539;SDS011;5826;54.756;9.192;2022-10-22T15:11:10;13.27;;;7.55;;
11539;SDS011;5826;54.756;9.192;2022-10-22T15:13:37;12.07;;;8.07;;
11539;SDS011;5826;54.756;9.192;2022-10-22T15:16:04;12.05;;;7.78;;
11539;SDS011;5826;54.756;9.192;2022-10-22T15:18:31;8.05;;;5.95;;
11539;SDS011;5826;54.756;9.192;2022-10-22T15:21:00;12.57;;;8.88;;
11539;SDS011;5826;54.756;9.192;2022-10-22T15:23:28;9.15;;;6.45;;
11539;SDS011;5826;54.756;9.192;2022-10-22T15:25:54;12.95;;;7.93;;
11539;SDS011;5826;54.756;9.192;2022-10-22T15:28:19;10.55;;;6.93;;
11539;SDS011;5826;54.756;9.192;2022-10-22T15:30:50;8.10;;;5.32;;
11539;SDS011;5826;54.756;9.192;2022-10-22T15:33:17;7.63;;;5.35;;
11539;SDS011;5826;54.756;9.192;2022-10-22T15:35:43;8.82;;;5.57;;
11539;SDS011;5826;54.756;9.192;2022-10-22T15:38:08;8.35;;;5.93;;
11539;SDS011;5826;54.756;9.192;2022-10-22T15:40:34;6.95;;;4.32;;
11539;SDS011;5826;54.756;9.192;2022-10-22T15:42:59;11.68;;;6.22;;
11539;SDS011;5826;54.756;9.192;2022-10-22T15:45:25;10.88;;;5.80;;
11539;SDS011;5826;54.756;9.192;2022-10-22T15:47:50;12.05;;;7.85;;
11539;SDS011;5826;54.756;9.192;2022-10-22T15:50:16;8.77;;;5.70;;
11539;SDS011;5826;54.756;9.192;2022-10-22T15:52:41;9.60;;;7.05;;
11539;SDS011;5826;54.756;9.192;2022-10-22T15:55:07;7.35;;;5.30;;
11539;SDS011;5826;54.756;9.192;2022-10-22T15:57:34;8.73;;;5.63;;
11539;SDS011;5826;54.756;9.192;2022-10-22T16:00:00;7.10;;;4.40;;
11539;SDS011;5826;54.756;9.192;2022-10-22T16:02:26;6.70;;;4.93;;
11539;SDS011;5826;54.756;9.192;2022-10-22T16:04:52;6.20;;;4.18;;
11539;SDS011;5826;54.756;9.192;2022-10-22T16:07:17;5.63;;;4.22;;
11539;SDS011;5826;54.756;9.192;2022-10-22T16:09:42;6.68;;;4.63;;
11539;SDS011;5826;54.756;9.192;2022-10-22T16:12:08;6.50;;;3.47;;
11539;SDS011;5826;54.756;9.192;2022-10-22T16:14:34;5.00;;;3.22;;
11539;SDS011;5826;54.756;9.192;2022-10-22T16:16:59;7.30;;;5.47;;
11539;SDS011;5826;54.756;9.192;2022-10-22T16:19:25;6.30;;;3.80;;
11539;SDS011;5826;54.756;9.192;2022-10-22T16:21:51;6.25;;;5.05;;
11539;SDS011;5826;54.756;9.192;2022-10-22T16:24:19;6.25;;;4.55;;
11539;SDS011;5826;54.756;9.192;2022-10-22T16:26:45;7.13;;;5.07;;
11539;SDS011;5826;54.756;9.192;2022-10-22T16:29:11;6.78;;;5.03;;
11539;SDS011;5826;54.756;9.192;2022-10-22T16:31:37;6.32;;;5.70;;
11539;SDS011;5826;54.756;9.192;2022-10-22T16:34:04;6.38;;;4.55;;
11539;SDS011;5826;54.756;9.192;2022-10-22T16:36:30;7.70;;;4.93;;
11539;SDS011;5826;54.756;9.192;2022-10-22T16:38:56;7.57;;;6.32;;
11539;SDS011;5826;54.756;9.192;2022-10-22T16:41:22;6.72;;;5.07;;
11539;SDS011;5826;54.756;9.192;2022-10-22T16:43:50;8.82;;;6.30;;